Athboy, South Dakota
Current Conditions -  °F | °C
As of 4:53 AM on Thursday 23 Oct 2014 (Local Time) from KHEI Reporting Station
Clear Clear  
Wind Chill: -1°   Ceiling: Unl
Heat Index: -1°   Visibility: 10mi
Dew Point: -4°   Wind: 0mph
Humidity: 79%   Direction: NA
Pressure: 29.92"   Gusts: NA
Location:  45.2919°N, 102.298°W
Report Text: KHEI 231053Z AUTO 00000KT 10SM CLR M01/M04 A2992 RMK AO2 SLP141 T10061039
Loading
Personal Weather Stations






























Interactive Weather Map
Tropical Storm Tracking
New forecast layout! Learn more

10-Day Weather Forecast

Advertisements
Track Severe Weather on mobile